Time;durP1;ratioP1;P1;durP2;ratioP2;P2;SDS_P1;SDS_P2;PMS_P1;PMS_P2;Temp;Humidity;BMP_temperature;BMP_pressure;BME280_temperature;BME280_humidity;BME280_pressure;Samples;Min_cycle;Max_cycle;Signal;HPM_P1;HPM_P2
2022/10/24 00:00:44;;;;;;;0.30;0.28;;;;;;;;;;5105073;28;20031;-73
2022/10/24 00:03:11;;;;;;;1.35;1.35;;;;;;;;;;5113043;28;20020;-73
2022/10/24 00:05:41;;;;;;;0.03;0.03;;;;;;;;;;5091729;28;20111;-73
2022/10/24 00:08:07;;;;;;;11.32;10.23;;;;;;;;;;5094793;28;20055;-74
2022/10/24 00:10:35;;;;;;;3.22;3.03;;;;;;;;;;5112894;28;20030;-74
2022/10/24 00:13:01;;;;;;;1.40;1.30;;;;;;;;;;5094700;28;20032;-74
2022/10/24 00:15:28;;;;;;;0.00;0.00;;;;;;;;;;5095277;28;20202;-74
2022/10/24 00:17:54;;;;;;;0.00;0.00;;;;;;;;;;5113336;28;20024;-73
2022/10/24 00:20:20;;;;;;;1.45;1.38;;;;;;;;;;5113609;28;20062;-73
2022/10/24 00:22:47;;;;;;;4.28;2.08;;;;;;;;;;5112996;28;20111;-74
2022/10/24 00:25:13;;;;;;;2.03;1.33;;;;;;;;;;5113047;28;20108;-73
2022/10/24 00:27:39;;;;;;;0.00;0.00;;;;;;;;;;5094741;28;20079;-74
2022/10/24 00:30:06;;;;;;;0.85;0.85;;;;;;;;;;5116769;28;20098;-74
2022/10/24 00:32:35;;;;;;;2.35;1.55;;;;;;;;;;5116929;28;20103;-74
2022/10/24 00:35:01;;;;;;;2.53;2.28;;;;;;;;;;5098289;28;20031;-75
2022/10/24 00:37:28;;;;;;;0.75;0.75;;;;;;;;;;5116801;28;20049;-74
2022/10/24 00:39:54;;;;;;;0.00;0.00;;;;;;;;;;5113442;28;20032;-75
2022/10/24 00:42:21;;;;;;;0.95;0.95;;;;;;;;;;5108750;28;20052;-73
2022/10/24 00:44:49;;;;;;;0.00;0.00;;;;;;;;;;5102552;28;20043;-74
2022/10/24 00:47:15;;;;;;;0.00;0.00;;;;;;;;;;5095920;28;20028;-75
2022/10/24 00:49:46;;;;;;;0.00;0.00;;;;;;;;;;5101908;28;20020;-76
2022/10/24 00:52:14;;;;;;;0.00;0.00;;;;;;;;;;5098255;28;20075;-75
2022/10/24 00:54:44;;;;;;;2.45;2.35;;;;;;;;;;5097642;28;20027;-76
2022/10/24 00:57:20;;;;;;;1.30;1.20;;;;;;;;;;5116424;28;20473;-75
2022/10/24 00:59:49;;;;;;;2.08;0.88;;;;;;;;;;5115619;28;20023;-75
2022/10/24 01:02:15;;;;;;;0.00;0.00;;;;;;;;;;5116710;28;20039;-75
2022/10/24 01:04:43;;;;;;;0.00;0.00;;;;;;;;;;5116613;28;20032;-75
2022/10/24 01:07:25;;;;;;;0.08;0.08;;;;;;;;;;5116520;28;20031;-75
2022/10/24 01:10:00;;;;;;;1.20;0.70;;;;;;;;;;5116353;28;20484;-75
2022/10/24 01:12:32;;;;;;;9.60;5.40;;;;;;;;;;5115660;28;20026;-74
2022/10/24 01:15:05;;;;;;;1.63;1.38;;;;;;;;;;5097533;28;20034;-74
2022/10/24 01:17:43;;;;;;;3.83;3.60;;;;;;;;;;5116959;28;20111;-75
2022/10/24 01:20:28;;;;;;;6.22;2.55;;;;;;;;;;5097758;28;20084;-74
2022/10/24 01:23:13;;;;;;;0.00;0.00;;;;;;;;;;5089888;28;20032;-74
2022/10/24 01:25:51;;;;;;;2.47;2.33;;;;;;;;;;5114367;28;20032;-74
2022/10/24 01:28:38;;;;;;;4.47;1.30;;;;;;;;;;5116030;28;20028;-74
2022/10/24 01:31:16;;;;;;;0.00;0.00;;;;;;;;;;5102134;28;20293;-74
2022/10/24 01:33:48;;;;;;;0.10;0.10;;;;;;;;;;5115849;28;20107;-74
2022/10/24 01:36:16;;;;;;;3.50;3.20;;;;;;;;;;5097506;28;20038;-74
2022/10/24 01:38:46;;;;;;;0.00;0.00;;;;;;;;;;5096984;28;20035;-74
2022/10/24 01:41:14;;;;;;;0.00;0.00;;;;;;;;;;5097384;28;20451;-74
2022/10/24 01:43:45;;;;;;;0.00;0.00;;;;;;;;;;5115300;28;20204;-74
2022/10/24 01:46:14;;;;;;;0.00;0.00;;;;;;;;;;5115636;28;20482;-74
2022/10/24 01:48:44;;;;;;;2.28;2.17;;;;;;;;;;5115539;28;20024;-73
2022/10/24 01:51:12;;;;;;;1.02;1.02;;;;;;;;;;5097105;28;20490;-74
2022/10/24 01:53:38;;;;;;;4.85;1.67;;;;;;;;;;5092780;28;20446;-73
2022/10/24 01:56:05;;;;;;;0.00;0.00;;;;;;;;;;5098397;28;20028;-74
2022/10/24 01:58:32;;;;;;;0.00;0.00;;;;;;;;;;5115051;28;20439;-74
2022/10/24 02:00:59;;;;;;;0.15;0.15;;;;;;;;;;5115374;28;20110;-74
2022/10/24 02:03:44;;;;;;;0.00;0.00;;;;;;;;;;5115651;28;20038;-74
2022/10/24 02:06:14;;;;;;;0.00;0.00;;;;;;;;;;5107238;28;20032;-74
2022/10/24 02:08:43;;;;;;;0.25;0.25;;;;;;;;;;5083886;28;20616;-74
2022/10/24 02:11:10;;;;;;;4.82;1.45;;;;;;;;;;5130596;27;20028;-73
2022/10/24 02:13:41;;;;;;;0.08;0.08;;;;;;;;;;5097939;28;20081;-75
2022/10/24 02:16:07;;;;;;;6.70;2.95;;;;;;;;;;5104634;28;20057;-74
2022/10/24 02:18:34;;;;;;;0.82;0.82;;;;;;;;;;5103961;28;20034;-74
2022/10/24 02:21:03;;;;;;;0.00;0.00;;;;;;;;;;5096365;28;20040;-74
2022/10/24 02:23:29;;;;;;;0.63;0.63;;;;;;;;;;5092110;28;20032;-74
2022/10/24 02:25:58;;;;;;;2.17;2.08;;;;;;;;;;5077742;28;20139;-75
2022/10/24 02:28:28;;;;;;;0.00;0.00;;;;;;;;;;5100781;28;20061;-74
2022/10/24 02:30:59;;;;;;;0.10;0.10;;;;;;;;;;5111140;28;20115;-75
2022/10/24 02:33:27;;;;;;;1.25;1.17;;;;;;;;;;5096884;28;20091;-75
2022/10/24 02:35:54;;;;;;;2.65;0.55;;;;;;;;;;5098149;28;20030;-75
2022/10/24 02:38:26;;;;;;;0.00;0.00;;;;;;;;;;5088879;28;20020;-75
2022/10/24 02:40:53;;;;;;;2.38;0.60;;;;;;;;;;5107454;28;20024;-76
2022/10/24 02:43:22;;;;;;;7.13;2.33;;;;;;;;;;5102624;27;20130;-75
2022/10/24 02:45:50;;;;;;;4.20;2.75;;;;;;;;;;5089119;27;20019;-78
2022/10/24 02:48:18;;;;;;;0.73;0.73;;;;;;;;;;5101804;27;20019;-78
2022/10/24 02:50:44;;;;;;;0.40;0.40;;;;;;;;;;5085101;28;20504;-78
2022/10/24 02:53:15;;;;;;;0.40;0.40;;;;;;;;;;5082313;28;20079;-79
2022/10/24 02:55:47;;;;;;;3.22;3.00;;;;;;;;;;5099702;27;20016;-78
2022/10/24 02:58:14;;;;;;;3.50;3.40;;;;;;;;;;5087785;28;20024;-78
2022/10/24 03:00:40;;;;;;;1.10;0.75;;;;;;;;;;5103187;28;20024;-77
2022/10/24 03:03:07;;;;;;;0.10;0.10;;;;;;;;;;5106508;27;20479;-77
2022/10/24 03:05:33;;;;;;;0.17;0.17;;;;;;;;;;5082491;28;20498;-77
2022/10/24 03:07:59;;;;;;;0.52;0.52;;;;;;;;;;5098407;28;20031;-79
2022/10/24 03:10:26;;;;;;;0.00;0.00;;;;;;;;;;5104426;28;20094;-77
2022/10/24 03:12:52;;;;;;;0.63;0.63;;;;;;;;;;5081797;28;20028;-79
2022/10/24 03:15:19;;;;;;;0.00;0.00;;;;;;;;;;5082006;28;20024;-77
2022/10/24 03:17:48;;;;;;;0.10;0.10;;;;;;;;;;5100136;28;20548;-78
2022/10/24 03:20:15;;;;;;;1.85;1.75;;;;;;;;;;5102071;28;20035;-79
2022/10/24 03:22:41;;;;;;;0.38;0.38;;;;;;;;;;5101146;28;20135;-77
2022/10/24 03:25:10;;;;;;;2.13;1.95;;;;;;;;;;5101594;28;20024;-78
2022/10/24 03:27:36;;;;;;;5.95;3.08;;;;;;;;;;5104974;28;20077;-76
2022/10/24 03:30:03;;;;;;;2.10;1.95;;;;;;;;;;5067355;28;20020;-77
2022/10/24 03:32:30;;;;;;;0.00;0.00;;;;;;;;;;5095483;28;20020;-77
2022/10/24 03:34:56;;;;;;;16.05;15.07;;;;;;;;;;5099203;28;20043;-78
2022/10/24 03:37:22;;;;;;;0.03;0.03;;;;;;;;;;5091119;28;20573;-78
2022/10/24 03:39:49;;;;;;;1.05;1.00;;;;;;;;;;5105285;28;20039;-77
2022/10/24 03:42:15;;;;;;;10.63;7.85;;;;;;;;;;5084881;28;20072;-78
2022/10/24 03:44:42;;;;;;;7.03;3.30;;;;;;;;;;5104253;28;20036;-78
2022/10/24 03:47:08;;;;;;;4.57;2.65;;;;;;;;;;5092724;28;20047;-78
2022/10/24 03:49:35;;;;;;;3.92;3.60;;;;;;;;;;5080241;28;20055;-77
2022/10/24 03:52:01;;;;;;;22.67;9.40;;;;;;;;;;5106101;28;20223;-78
2022/10/24 03:54:27;;;;;;;16.63;7.78;;;;;;;;;;5093773;28;20040;-78
2022/10/24 03:56:54;;;;;;;7.88;6.55;;;;;;;;;;5107342;28;20157;-77
2022/10/24 03:59:20;;;;;;;0.55;0.55;;;;;;;;;;5104971;28;20101;-78
2022/10/24 04:01:47;;;;;;;5.35;2.53;;;;;;;;;;5108154;28;20380;-79
2022/10/24 04:04:13;;;;;;;50.25;9.93;;;;;;;;;;5098973;28;20030;-82
2022/10/24 04:06:39;;;;;;;12.50;7.93;;;;;;;;;;5109320;28;20099;-80
2022/10/24 04:09:06;;;;;;;29.63;13.27;;;;;;;;;;5106164;28;20015;-82
2022/10/24 04:11:32;;;;;;;13.52;7.18;;;;;;;;;;5093481;28;20015;-81
2022/10/24 04:13:59;;;;;;;22.60;11.25;;;;;;;;;;5088218;28;20035;-79
2022/10/24 04:16:26;;;;;;;11.25;7.20;;;;;;;;;;5106111;27;20027;-81
2022/10/24 04:18:53;;;;;;;8.30;6.85;;;;;;;;;;5087506;28;20043;-80
2022/10/24 04:21:19;;;;;;;10.27;4.00;;;;;;;;;;5101800;27;20020;-82
2022/10/24 04:23:46;;;;;;;1.80;1.73;;;;;;;;;;5095605;28;20377;-80
2022/10/24 04:26:15;;;;;;;1.45;1.35;;;;;;;;;;5105922;28;20115;-79
2022/10/24 04:28:41;;;;;;;2.92;2.72;;;;;;;;;;5091049;28;20151;-81
2022/10/24 04:31:08;;;;;;;12.55;6.68;;;;;;;;;;5095403;28;20024;-82
2022/10/24 04:33:35;;;;;;;0.00;0.00;;;;;;;;;;5094951;28;20024;-82
2022/10/24 04:36:02;;;;;;;5.90;5.60;;;;;;;;;;5110853;28;20098;-86
2022/10/24 04:38:28;;;;;;;0.35;0.35;;;;;;;;;;5088487;28;20042;-85
2022/10/24 04:40:56;;;;;;;15.70;9.68;;;;;;;;;;5095231;28;20023;-82
2022/10/24 04:43:23;;;;;;;0.08;0.08;;;;;;;;;;5105418;28;21419;-83
2022/10/24 04:45:49;;;;;;;0.47;0.47;;;;;;;;;;5086777;28;20024;-80
2022/10/24 04:48:16;;;;;;;4.63;4.05;;;;;;;;;;5084946;28;20059;-79
2022/10/24 06:56:25;;;;;;;5.00;4.68;;;;;;;;;;5109625;27;20560;-84
2022/10/24 06:58:53;;;;;;;18.73;8.32;;;;;;;;;;5085901;28;20142;-81
2022/10/24 07:01:30;;;;;;;28.88;11.18;;;;;;;;;;5105139;27;20456;-82
2022/10/24 07:03:57;;;;;;;5.05;4.70;;;;;;;;;;5110273;28;20041;-83
2022/10/24 07:06:29;;;;;;;9.80;9.13;;;;;;;;;;5094750;28;20062;-82
2022/10/24 07:09:00;;;;;;;4.90;3.20;;;;;;;;;;5094378;28;20015;-82
2022/10/24 07:11:27;;;;;;;6.32;3.35;;;;;;;;;;5080356;28;20605;-84
2022/10/24 07:13:54;;;;;;;6.55;6.15;;;;;;;;;;5082016;28;20032;-84
2022/10/24 07:16:24;;;;;;;7.18;6.82;;;;;;;;;;5082847;28;20064;-86
2022/10/24 07:18:54;;;;;;;2.35;2.25;;;;;;;;;;5096506;28;20051;-86
2022/10/24 07:21:58;;;;;;;2.15;2.05;;;;;;;;;;5104926;28;20597;-88
2022/10/24 07:24:24;;;;;;;22.60;9.32;;;;;;;;;;5080083;28;20127;-86
2022/10/24 07:27:04;;;;;;;0.00;0.00;;;;;;;;;;5087254;28;20077;-85
2022/10/24 07:33:10;;;;;;;1.65;1.55;;;;;;;;;;5026484;28;20646;-84
2022/10/24 07:35:41;;;;;;;4.65;3.30;;;;;;;;;;5067228;28;20037;-84
2022/10/24 07:38:10;;;;;;;7.07;5.60;;;;;;;;;;5091813;28;20036;-83
2022/10/24 07:40:56;;;;;;;0.00;0.00;;;;;;;;;;5101026;28;20036;-83
2022/10/24 07:43:23;;;;;;;1.65;0.57;;;;;;;;;;5099074;28;20103;-83
2022/10/24 07:45:50;;;;;;;0.35;0.35;;;;;;;;;;5083588;28;20032;-82
2022/10/24 07:48:18;;;;;;;5.22;4.72;;;;;;;;;;5078175;28;20068;-82
2022/10/24 07:50:47;;;;;;;0.40;0.22;;;;;;;;;;5094680;28;20053;-82
2022/10/24 07:53:13;;;;;;;0.40;0.40;;;;;;;;;;5097506;28;20035;-82
2022/10/24 07:55:46;;;;;;;0.00;0.00;;;;;;;;;;5086757;28;20031;-84
2022/10/24 07:58:15;;;;;;;0.80;0.80;;;;;;;;;;5069643;28;20048;-84
2022/10/24 08:01:08;;;;;;;4.65;3.75;;;;;;;;;;5078031;28;20029;-85
2022/10/24 08:03:37;;;;;;;1.65;1.55;;;;;;;;;;5071975;28;20453;-83
2022/10/24 08:06:07;;;;;;;3.30;3.10;;;;;;;;;;5060867;28;20063;-84
2022/10/24 08:08:34;;;;;;;0.98;0.98;;;;;;;;;;5093565;28;20463;-85
2022/10/24 08:11:01;;;;;;;0.45;0.45;;;;;;;;;;5080106;28;20088;-86
2022/10/24 08:13:27;;;;;;;6.03;4.82;;;;;;;;;;5082097;28;20017;-86
2022/10/24 08:15:55;;;;;;;7.38;1.17;;;;;;;;;;5075094;28;20021;-87
2022/10/24 08:18:21;;;;;;;2.55;2.22;;;;;;;;;;5071529;28;20043;-86
2022/10/24 08:20:56;;;;;;;1.88;1.77;;;;;;;;;;5075872;28;20024;-86
2022/10/24 08:23:23;;;;;;;6.57;5.93;;;;;;;;;;5094563;28;20039;-84
2022/10/24 08:25:49;;;;;;;15.63;9.15;;;;;;;;;;5091452;28;20031;-86
2022/10/24 08:28:15;;;;;;;5.82;2.63;;;;;;;;;;5088996;28;20036;-85
2022/10/24 08:30:42;;;;;;;0.73;0.73;;;;;;;;;;5094892;28;20021;-84
2022/10/24 08:33:08;;;;;;;0.08;0.08;;;;;;;;;;5073795;28;20125;-83
2022/10/24 08:35:37;;;;;;;7.75;6.65;;;;;;;;;;5092356;28;20024;-82
2022/10/24 08:38:06;;;;;;;1.95;1.83;;;;;;;;;;5073772;28;20569;-86
2022/10/24 08:40:36;;;;;;;13.93;8.10;;;;;;;;;;5078537;28;20108;-85
2022/10/24 08:43:02;;;;;;;9.50;6.63;;;;;;;;;;5104130;28;20063;-81
2022/10/24 08:45:33;;;;;;;13.02;6.47;;;;;;;;;;5081218;28;20074;-81
2022/10/24 08:48:06;;;;;;;4.75;2.30;;;;;;;;;;5082275;28;20035;-81
2022/10/24 08:50:34;;;;;;;0.22;0.22;;;;;;;;;;5089573;28;20027;-83
2022/10/24 08:53:10;;;;;;;1.58;1.35;;;;;;;;;;5077755;28;20025;-84
2022/10/24 08:55:43;;;;;;;1.60;1.58;;;;;;;;;;5093236;28;20478;-83
2022/10/24 08:58:13;;;;;;;1.98;1.55;;;;;;;;;;5090883;28;20056;-81
2022/10/24 09:00:42;;;;;;;0.30;0.30;;;;;;;;;;5089166;28;20028;-84
2022/10/24 09:03:27;;;;;;;6.50;5.07;;;;;;;;;;5085580;28;20032;-82
2022/10/24 09:05:58;;;;;;;0.25;0.10;;;;;;;;;;5069784;28;20513;-83
2022/10/24 09:08:32;;;;;;;0.30;0.30;;;;;;;;;;5065584;28;20078;-82
2022/10/24 09:11:20;;;;;;;0.10;0.10;;;;;;;;;;5060502;28;20032;-80
2022/10/24 09:13:47;;;;;;;0.15;0.15;;;;;;;;;;5066165;28;20027;-80
2022/10/24 09:16:24;;;;;;;0.15;0.15;;;;;;;;;;5072866;28;20385;-82
2022/10/24 09:19:03;;;;;;;0.30;0.30;;;;;;;;;;5069671;28;20040;-82
2022/10/24 09:21:34;;;;;;;0.47;0.47;;;;;;;;;;5076131;28;20031;-83
2022/10/24 09:24:03;;;;;;;0.52;0.52;;;;;;;;;;5081160;28;20583;-82
2022/10/24 09:26:30;;;;;;;0.15;0.15;;;;;;;;;;5068697;28;20073;-81
2022/10/24 09:28:59;;;;;;;21.13;4.40;;;;;;;;;;5084498;28;20078;-82
2022/10/24 09:31:28;;;;;;;4.22;2.83;;;;;;;;;;5089028;28;20020;-82
2022/10/24 09:33:59;;;;;;;2.55;2.35;;;;;;;;;;5066360;28;20024;-83
2022/10/24 09:36:29;;;;;;;5.57;2.78;;;;;;;;;;5089318;28;20035;-83
2022/10/24 09:38:55;;;;;;;13.90;1.90;;;;;;;;;;5069609;28;20385;-84
2022/10/24 09:41:24;;;;;;;0.80;0.80;;;;;;;;;;5074119;28;20031;-84
2022/10/24 09:43:54;;;;;;;0.35;0.35;;;;;;;;;;5078995;28;20032;-83
2022/10/24 09:46:24;;;;;;;0.25;0.25;;;;;;;;;;5079463;28;20020;-89
2022/10/24 09:48:54;;;;;;;2.38;2.28;;;;;;;;;;5079116;28;20021;-88
2022/10/24 09:51:20;;;;;;;1.75;1.65;;;;;;;;;;5085891;28;20568;-87
2022/10/24 09:53:58;;;;;;;0.47;0.47;;;;;;;;;;5088908;28;20070;-88
2022/10/24 09:56:32;;;;;;;0.15;0.15;;;;;;;;;;5081457;28;20035;-85
2022/10/24 09:59:15;;;;;;;0.90;0.90;;;;;;;;;;5092706;28;20032;-83
2022/10/24 10:01:43;;;;;;;0.00;0.00;;;;;;;;;;5113449;27;20024;-86
2022/10/24 10:04:14;;;;;;;2.67;1.85;;;;;;;;;;5088670;28;20043;-83
2022/10/24 10:06:45;;;;;;;0.35;0.35;;;;;;;;;;5086752;28;20032;-84
2022/10/24 10:09:13;;;;;;;0.43;0.43;;;;;;;;;;5090635;28;20027;-82
2022/10/24 10:11:40;;;;;;;4.57;3.60;;;;;;;;;;5094955;28;20052;-79
2022/10/24 10:14:19;;;;;;;1.15;1.15;;;;;;;;;;5113716;27;20023;-84
2022/10/24 10:16:45;;;;;;;1.70;1.00;;;;;;;;;;5112061;27;20489;-84
2022/10/24 10:19:16;;;;;;;1.90;0.68;;;;;;;;;;5087059;28;20062;-84
2022/10/24 10:22:00;;;;;;;2.45;2.35;;;;;;;;;;5094541;27;20501;-84
2022/10/24 10:24:36;;;;;;;3.00;0.80;;;;;;;;;;5095093;28;20099;-85
2022/10/24 10:27:23;;;;;;;0.57;0.57;;;;;;;;;;5094143;28;20027;-85
2022/10/24 10:29:50;;;;;;;0.80;0.80;;;;;;;;;;5088328;28;20035;-84
2022/10/24 10:32:22;;;;;;;1.55;0.85;;;;;;;;;;5095829;28;20024;-84
2022/10/24 10:34:56;;;;;;;1.23;1.17;;;;;;;;;;5100005;28;20030;-81
2022/10/24 10:37:32;;;;;;;0.63;0.63;;;;;;;;;;5104485;28;20458;-82
2022/10/24 10:40:02;;;;;;;1.25;0.45;;;;;;;;;;5114030;27;20046;-80
2022/10/24 10:42:31;;;;;;;7.30;6.78;;;;;;;;;;5086235;28;20435;-82
2022/10/24 10:45:03;;;;;;;7.18;6.70;;;;;;;;;;5110086;27;20031;-82
2022/10/24 10:47:34;;;;;;;0.75;0.75;;;;;;;;;;5086184;28;20425;-80
2022/10/24 10:50:01;;;;;;;0.00;0.00;;;;;;;;;;5100547;27;20154;-76
2022/10/24 10:52:32;;;;;;;1.77;1.60;;;;;;;;;;5090192;28;20031;-82
2022/10/24 10:55:14;;;;;;;3.70;2.42;;;;;;;;;;5084098;28;20023;-80
2022/10/24 10:57:46;;;;;;;2.92;2.72;;;;;;;;;;5097145;28;20054;-80
2022/10/24 11:00:33;;;;;;;0.00;0.00;;;;;;;;;;5114327;27;20036;-79
2022/10/24 11:03:09;;;;;;;13.40;4.95;;;;;;;;;;5091928;28;20046;-77
2022/10/24 11:05:44;;;;;;;2.17;1.77;;;;;;;;;;5104865;28;20043;-76
2022/10/24 11:08:26;;;;;;;5.93;4.72;;;;;;;;;;5106522;27;20016;-76
2022/10/24 11:11:18;;;;;;;0.43;0.43;;;;;;;;;;5101621;28;20039;-78
2022/10/24 11:13:58;;;;;;;0.63;0.63;;;;;;;;;;5084833;27;20119;-79
2022/10/24 11:16:26;;;;;;;1.55;1.45;;;;;;;;;;5114363;27;20433;-76
2022/10/24 11:18:55;;;;;;;0.00;0.00;;;;;;;;;;5083280;28;20472;-79
2022/10/24 11:21:24;;;;;;;31.20;16.45;;;;;;;;;;5108722;28;20084;-75
2022/10/24 11:23:54;;;;;;;14.00;7.90;;;;;;;;;;5112063;27;20051;-83
2022/10/24 11:26:35;;;;;;;7.63;5.82;;;;;;;;;;5096067;28;20465;-80
2022/10/24 11:29:16;;;;;;;39.45;21.35;;;;;;;;;;5096144;28;20024;-81
2022/10/24 11:31:55;;;;;;;44.50;18.08;;;;;;;;;;5097009;28;20023;-79
2022/10/24 11:34:25;;;;;;;17.23;11.38;;;;;;;;;;5089197;28;20041;-80
2022/10/24 11:37:02;;;;;;;6.72;6.10;;;;;;;;;;5117254;28;20031;-77
2022/10/24 11:39:32;;;;;;;13.38;11.88;;;;;;;;;;5092882;28;20038;-80
2022/10/24 11:41:58;;;;;;;19.33;13.32;;;;;;;;;;5110288;28;20089;-80
2022/10/24 11:44:43;;;;;;;35.75;12.40;;;;;;;;;;5098924;28;20032;-79
2022/10/24 11:47:24;;;;;;;12.77;8.02;;;;;;;;;;5097536;28;20110;-78
2022/10/24 11:50:11;;;;;;;30.48;12.02;;;;;;;;;;5127633;28;20026;-81
2022/10/24 11:52:48;;;;;;;19.10;9.27;;;;;;;;;;5090260;28;20381;-79
2022/10/24 11:55:14;;;;;;;22.90;11.50;;;;;;;;;;5119409;28;20036;-79
2022/10/24 11:57:43;;;;;;;21.45;10.75;;;;;;;;;;5124500;28;20039;-77
2022/10/24 12:00:18;;;;;;;14.77;9.95;;;;;;;;;;5097415;28;20038;-79
2022/10/24 12:02:44;;;;;;;43.95;19.05;;;;;;;;;;5100024;28;20109;-81
2022/10/24 12:05:21;;;;;;;19.60;13.57;;;;;;;;;;5120065;28;20083;-81
2022/10/24 12:07:54;;;;;;;27.17;14.35;;;;;;;;;;5112070;28;20031;-83
2022/10/24 12:10:34;;;;;;;15.65;9.23;;;;;;;;;;5106402;28;20023;-82
2022/10/24 12:13:19;;;;;;;48.42;21.23;;;;;;;;;;5120394;28;20027;-81
2022/10/24 12:16:03;;;;;;;29.10;12.77;;;;;;;;;;5112464;28;20526;-81
2022/10/24 12:18:39;;;;;;;32.13;16.27;;;;;;;;;;5113099;28;20028;-82
2022/10/24 12:21:07;;;;;;;31.05;18.42;;;;;;;;;;5107641;28;20102;-82
2022/10/24 12:23:34;;;;;;;5.03;4.53;;;;;;;;;;5100079;28;20110;-82
2022/10/24 12:26:07;;;;;;;26.55;14.13;;;;;;;;;;5102484;28;20028;-83
2022/10/24 12:28:34;;;;;;;20.73;9.88;;;;;;;;;;5100914;28;20020;-82
2022/10/24 12:31:10;;;;;;;8.90;8.20;;;;;;;;;;5115633;28;20024;-82
2022/10/24 12:33:36;;;;;;;31.58;11.20;;;;;;;;;;5130241;28;20080;-82
2022/10/24 12:36:02;;;;;;;11.93;6.18;;;;;;;;;;5114102;28;20363;-83
2022/10/24 12:38:29;;;;;;;35.58;13.85;;;;;;;;;;5127676;28;20047;-83
2022/10/24 12:41:05;;;;;;;15.18;8.43;;;;;;;;;;5118513;28;20031;-82
2022/10/24 12:43:38;;;;;;;17.58;10.18;;;;;;;;;;5121656;28;20014;-82
2022/10/24 12:46:19;;;;;;;7.45;5.28;;;;;;;;;;5104949;28;20040;-83
2022/10/24 12:48:57;;;;;;;14.07;6.97;;;;;;;;;;5112229;28;20046;-83
2022/10/24 12:51:31;;;;;;;5.43;3.83;;;;;;;;;;5109442;28;20028;-82
2022/10/24 12:54:16;;;;;;;45.33;19.75;;;;;;;;;;5096226;28;20084;-81
2022/10/24 12:56:51;;;;;;;26.70;12.57;;;;;;;;;;5091487;28;20649;-82
2022/10/24 12:59:31;;;;;;;29.13;12.27;;;;;;;;;;5084951;28;20110;-82
2022/10/24 13:02:13;;;;;;;9.82;5.65;;;;;;;;;;5076814;28;20035;-82
2022/10/24 13:04:58;;;;;;;17.05;7.57;;;;;;;;;;5067121;28;20028;-82
2022/10/24 13:07:43;;;;;;;2.35;1.98;;;;;;;;;;5061783;28;20028;-83
2022/10/24 13:10:09;;;;;;;25.80;12.60;;;;;;;;;;5092946;28;20017;-82
2022/10/24 13:12:39;;;;;;;5.13;3.60;;;;;;;;;;5079665;28;20029;-82
2022/10/24 13:15:05;;;;;;;13.40;9.38;;;;;;;;;;5063273;28;20640;-82
2022/10/24 13:17:37;;;;;;;1.10;0.95;;;;;;;;;;5085507;28;20032;-82
2022/10/24 13:20:14;;;;;;;4.75;4.30;;;;;;;;;;5085481;28;20059;-82
2022/10/24 13:22:41;;;;;;;17.42;11.73;;;;;;;;;;5094145;28;20028;-81
2022/10/24 13:25:17;;;;;;;3.88;3.53;;;;;;;;;;5066058;28;20063;-82
2022/10/24 13:27:44;;;;;;;5.75;3.30;;;;;;;;;;5061022;28;20549;-82
2022/10/24 13:30:23;;;;;;;15.40;9.70;;;;;;;;;;5084216;28;20020;-82
2022/10/24 13:32:50;;;;;;;21.38;11.95;;;;;;;;;;5089677;28;20020;-83
2022/10/24 13:35:20;;;;;;;24.45;10.65;;;;;;;;;;5064617;28;20028;-82
2022/10/24 13:37:49;;;;;;;23.35;13.50;;;;;;;;;;5071296;28;20026;-81
2022/10/24 13:40:33;;;;;;;18.35;9.30;;;;;;;;;;5077590;28;20053;-83
2022/10/24 13:43:02;;;;;;;21.98;11.75;;;;;;;;;;5081161;28;20028;-82
2022/10/24 13:45:28;;;;;;;18.05;8.82;;;;;;;;;;5060441;28;20036;-82
2022/10/24 13:48:05;;;;;;;24.17;12.77;;;;;;;;;;5072043;28;20073;-82
2022/10/24 13:50:34;;;;;;;18.45;9.73;;;;;;;;;;5090533;28;20025;-81
2022/10/24 13:53:03;;;;;;;15.20;8.48;;;;;;;;;;5091178;28;20482;-82
2022/10/24 13:55:36;;;;;;;26.25;15.15;;;;;;;;;;5073418;28;20095;-82
2022/10/24 13:58:05;;;;;;;7.70;4.88;;;;;;;;;;5114801;27;20069;-82
2022/10/24 14:00:34;;;;;;;16.38;10.90;;;;;;;;;;5107837;27;20025;-83
2022/10/24 14:03:03;;;;;;;4.45;4.03;;;;;;;;;;5092702;27;20051;-83
2022/10/24 14:05:29;;;;;;;4.60;4.20;;;;;;;;;;5112040;27;20024;-83
2022/10/24 14:07:56;;;;;;;4.63;2.47;;;;;;;;;;5084117;28;20429;-83
2022/10/24 14:10:22;;;;;;;27.40;11.52;;;;;;;;;;5099239;27;20036;-81
2022/10/24 14:12:55;;;;;;;3.70;3.40;;;;;;;;;;5112680;27;20019;-82
2022/10/24 14:15:23;;;;;;;13.90;7.40;;;;;;;;;;5096482;28;20379;-82
2022/10/24 14:17:53;;;;;;;1.23;1.20;;;;;;;;;;5096593;28;20042;-82
2022/10/24 14:20:19;;;;;;;5.13;4.65;;;;;;;;;;5119137;28;20470;-81
2022/10/24 14:22:46;;;;;;;13.98;8.38;;;;;;;;;;5116467;28;20034;-82
2022/10/24 14:25:21;;;;;;;22.42;12.40;;;;;;;;;;5131552;28;20083;-81
2022/10/24 14:27:47;;;;;;;31.98;16.23;;;;;;;;;;5135151;28;20049;-82
2022/10/24 14:30:18;;;;;;;13.15;6.53;;;;;;;;;;5117394;28;20311;-82
2022/10/24 14:32:44;;;;;;;27.83;10.57;;;;;;;;;;5131410;27;20023;-83
2022/10/24 14:35:11;;;;;;;8.88;1.35;;;;;;;;;;5109883;28;20023;-81
2022/10/24 14:37:39;;;;;;;3.88;3.53;;;;;;;;;;5129770;27;20023;-81
2022/10/24 14:40:06;;;;;;;35.17;16.27;;;;;;;;;;5099517;28;20028;-81
2022/10/24 14:42:33;;;;;;;25.15;11.48;;;;;;;;;;5098443;28;20028;-82
2022/10/24 14:44:59;;;;;;;6.55;1.83;;;;;;;;;;5118572;28;20028;-81
2022/10/24 14:47:28;;;;;;;9.32;8.80;;;;;;;;;;5084275;28;20588;-82
2022/10/24 14:49:54;;;;;;;14.10;7.78;;;;;;;;;;5094639;28;20027;-82
2022/10/24 14:52:25;;;;;;;0.77;0.77;;;;;;;;;;5125769;28;20024;-81
2022/10/24 14:54:58;;;;;;;18.00;11.75;;;;;;;;;;5116388;28;20107;-80
2022/10/24 14:57:25;;;;;;;22.13;10.55;;;;;;;;;;5107088;28;20052;-81
2022/10/24 14:59:53;;;;;;;24.23;11.18;;;;;;;;;;5122343;27;20059;-82
2022/10/24 15:02:21;;;;;;;29.77;14.48;;;;;;;;;;5116397;28;20422;-82
2022/10/24 15:04:49;;;;;;;9.77;7.32;;;;;;;;;;5098576;28;20054;-82
2022/10/24 15:07:36;;;;;;;8.52;6.90;;;;;;;;;;5117637;27;20538;-81
2022/10/24 15:10:11;;;;;;;31.48;16.70;;;;;;;;;;5096891;28;20551;-81
2022/10/24 15:12:39;;;;;;;19.45;11.38;;;;;;;;;;5109049;28;20012;-82
2022/10/24 15:15:18;;;;;;;17.35;12.20;;;;;;;;;;5133173;28;20037;-81
2022/10/24 15:17:44;;;;;;;12.15;5.90;;;;;;;;;;5096389;28;20028;-81
2022/10/24 15:20:18;;;;;;;1.65;1.15;;;;;;;;;;5104971;28;20032;-81
2022/10/24 15:22:49;;;;;;;1.38;1.30;;;;;;;;;;5093208;28;20097;-82
2022/10/24 15:25:21;;;;;;;6.22;3.90;;;;;;;;;;5111540;28;20055;-81
2022/10/24 15:27:47;;;;;;;3.45;1.48;;;;;;;;;;5114825;28;20015;-81
2022/10/24 15:30:19;;;;;;;16.35;9.00;;;;;;;;;;5094470;28;20024;-81
2022/10/24 15:32:45;;;;;;;13.80;8.00;;;;;;;;;;5082582;28;20026;-82
2022/10/24 15:35:13;;;;;;;11.23;6.43;;;;;;;;;;5100581;28;20125;-81
2022/10/24 15:37:39;;;;;;;15.18;10.25;;;;;;;;;;5108064;28;20024;-81
2022/10/24 15:40:12;;;;;;;4.43;3.13;;;;;;;;;;5116405;28;20393;-81
2022/10/24 15:42:38;;;;;;;4.22;2.75;;;;;;;;;;5112434;28;20027;-81
2022/10/24 15:45:07;;;;;;;24.38;6.15;;;;;;;;;;5077529;28;20043;-81
2022/10/24 15:47:36;;;;;;;15.48;8.43;;;;;;;;;;5085417;28;20455;-81
2022/10/24 15:50:02;;;;;;;14.40;8.75;;;;;;;;;;5095723;28;20024;-81
2022/10/24 15:52:34;;;;;;;16.58;11.02;;;;;;;;;;5086200;28;20370;-81
2022/10/24 15:55:01;;;;;;;8.90;5.18;;;;;;;;;;5098818;28;20046;-81
2022/10/24 15:57:27;;;;;;;17.55;5.97;;;;;;;;;;5098062;28;20043;-82
2022/10/24 15:59:53;;;;;;;20.95;11.20;;;;;;;;;;5117379;28;20024;-82
2022/10/24 16:02:21;;;;;;;20.08;9.88;;;;;;;;;;5124567;28;20088;-81
2022/10/24 16:04:47;;;;;;;3.50;1.35;;;;;;;;;;5127341;28;20004;-82
2022/10/24 16:07:14;;;;;;;21.48;11.68;;;;;;;;;;5094682;28;20062;-81
2022/10/24 16:09:40;;;;;;;16.45;5.15;;;;;;;;;;5102766;28;20023;-82
2022/10/24 16:12:07;;;;;;;23.55;16.88;;;;;;;;;;5100999;28;20477;-82
2022/10/24 16:14:33;;;;;;;11.52;5.30;;;;;;;;;;5101708;28;20028;-82
2022/10/24 16:16:59;;;;;;;11.70;8.15;;;;;;;;;;5107158;28;20096;-82
2022/10/24 16:19:26;;;;;;;6.72;4.82;;;;;;;;;;5088723;28;20182;-82
2022/10/24 16:21:57;;;;;;;2.17;2.08;;;;;;;;;;5085704;28;20073;-81
2022/10/24 16:24:24;;;;;;;0.20;0.20;;;;;;;;;;5099999;28;20062;-82
2022/10/24 16:26:51;;;;;;;0.15;0.15;;;;;;;;;;5092088;28;20470;-82
2022/10/24 16:29:17;;;;;;;0.63;0.57;;;;;;;;;;5114663;28;20094;-82
2022/10/24 16:31:45;;;;;;;2.30;2.03;;;;;;;;;;5086587;28;20091;-82
2022/10/24 16:34:12;;;;;;;6.97;4.78;;;;;;;;;;5117443;28;20412;-82
2022/10/24 16:36:39;;;;;;;16.98;11.23;;;;;;;;;;5110481;28;20155;-82
2022/10/24 16:39:06;;;;;;;29.42;13.70;;;;;;;;;;5105808;28;20018;-82
2022/10/24 16:41:33;;;;;;;28.00;10.88;;;;;;;;;;5089048;28;20096;-82
2022/10/24 16:43:59;;;;;;;5.80;5.43;;;;;;;;;;5109634;28;20024;-82
2022/10/24 16:46:27;;;;;;;20.15;11.90;;;;;;;;;;5086737;28;20020;-82
2022/10/24 16:48:53;;;;;;;19.95;12.63;;;;;;;;;;5110186;28;20131;-82
2022/10/24 16:51:21;;;;;;;17.67;10.38;;;;;;;;;;5119352;28;20088;-82
2022/10/24 16:53:47;;;;;;;9.23;7.18;;;;;;;;;;5092312;28;20028;-82
2022/10/24 16:56:14;;;;;;;6.30;5.63;;;;;;;;;;5109590;28;20030;-82
2022/10/24 16:58:41;;;;;;;12.68;8.55;;;;;;;;;;5099024;28;20031;-82
2022/10/24 17:01:09;;;;;;;3.53;3.10;;;;;;;;;;5115305;28;20078;-83
2022/10/24 17:03:35;;;;;;;0.43;0.43;;;;;;;;;;5118245;28;20529;-83